Jump to content


UNITED AIRLINES FLIGHT UA484 FLOWN ON 03-25-2018 BY CAPTAIN JIM BOERMAN

Pilot StatsCaptain Jim Boerman (LDP136) • 4,870.7 total hours • 1,472 total flights [View Logbook]
FLIGHT DETAILS
StatusReceived and approved on 2018-03-25 at 11:03:49
Origin AirportWashington Dulles Intl (KIAD) • Washington, Virginia, United States (312 feet MSL)
Filed Flight PlanKIAD CSN J147 BKW J42 SWAPP Q34 MEM J29 RAECN KIAH
Destination AirportGeorge Bush Intercontinental-H (KIAH) • Houston, Texas, United States (97 feet MSL)
Alternate AirportSoutheast Texas Regl (KBPT) • Beaumont-Port Arthur, Texas, United States (15 feet MSL)
AirlineUnited Airlines
AircraftBoeing 737-800 | Winglets (73H / B737-800)
FS Aircraft UsedBoeing 737-824NGX United Airlines (Merger) Winglets
Cruising AltitudeFL340
Distance Flown1,033 nautical miles
Passengers Onboard110 passengers (67.90% full)
DEPARTURE DETAILS
Time Out08:25:46
Taxi Data128,342 lbs total with 21,917 lbs of fuel onboard
Takeoff Data08:37:41 (12 minutes after leaving gate/ramp) • 127,802 lbs total • 10° pitch at 148 knots
Departure METARKIAD 251052Z 01012G20KT 10SM FEW150 FEW250 M02/M08 A3023 RMK AO2 SLP239 T10171078
ARRIVAL DETAILS
Landing Data10:37:10 • 113,912 lbs total • 3° pitch doing 120 knots at a rate of -142.26 feet/minute with 7,167 lbs of fuel onboard
Time In10:44:58 (8 minutes after landing)
Ramp Weight113,592 lbs total
Total Fuel Used14,750 lbs
Total Block Time03:18:46 (3.3 hours) while 20 minutes were spent on the ground
Arrival METARKIAH 251510Z 17006KT 7SM SCT011 BKN017 OVC025 23/20 A2995 RMK AO2 T02330200
MISCELLANEOUS DETAILS
LiveDISPATCH Version4.8.3.1
FS Version
FSUIPC Version5.12
OS VersionWindows 7 32-bit
Screen Resolution1920 x 1080
Pilot's CommentsNo Comments Reported
FLIGHT MAP